createdAt,value
2022-11-05T00:01:37.053Z,80.20
2022-11-05T00:04:30.623Z,79.76
2022-11-05T00:07:50.858Z,79.72
2022-11-05T00:10:27.487Z,80.64
2022-11-05T00:13:18.850Z,80.55
2022-11-05T00:16:07.046Z,80.87
2022-11-05T00:18:37.131Z,81.40
2022-11-05T00:21:27.362Z,81.20
2022-11-05T00:24:17.274Z,83.02
2022-11-05T00:26:50.459Z,83.01
2022-11-05T00:29:20.164Z,82.90
2022-11-05T00:31:50.716Z,83.48
2022-11-05T00:34:20.429Z,83.72
2022-11-05T00:36:50.135Z,84.09
2022-11-05T00:39:19.803Z,84.60
2022-11-05T00:42:09.265Z,84.90
2022-11-05T00:44:57.871Z,85.31
2022-11-05T00:47:45.525Z,83.65
2022-11-05T00:50:16.116Z,85.91
2022-11-05T00:52:58.844Z,86.90
2022-11-05T00:55:35.699Z,87.63
2022-11-05T00:58:08.936Z,87.86
2022-11-05T01:00:43.683Z,88.18
2022-11-05T01:03:18.191Z,88.31
2022-11-05T01:05:50.828Z,88.33
2022-11-05T01:08:22.634Z,88.70
2022-11-05T01:10:55.651Z,89.27
2022-11-05T01:13:30.975Z,89.29
2022-11-05T01:16:08.275Z,89.28
2022-11-05T01:18:41.057Z,89.53
2022-11-05T01:21:16.972Z,89.84
2022-11-05T01:23:46.824Z,90.22
2022-11-05T01:26:16.634Z,90.51
2022-11-05T01:28:46.460Z,90.85
2022-11-05T01:31:16.259Z,90.98
2022-11-05T01:33:46.157Z,91.20
2022-11-05T01:36:16.899Z,91.52
2022-11-05T01:38:46.978Z,91.67
2022-11-05T01:41:16.784Z,91.94
2022-11-05T01:43:58.466Z,92.18
2022-11-05T01:46:40.015Z,92.35
2022-11-05T01:49:33.078Z,92.90
2022-11-05T01:52:06.210Z,92.87
2022-11-05T01:54:37.482Z,92.97
2022-11-05T01:57:12.742Z,93.18
2022-11-05T01:59:50.241Z,93.36
2022-11-05T02:02:21.980Z,93.57
2022-11-05T02:04:57.287Z,93.89
2022-11-05T02:07:29.456Z,93.89
2022-11-05T02:10:11.479Z,93.90
2022-11-05T02:12:46.080Z,94.66
2022-11-05T02:15:20.066Z,94.25
2022-11-05T02:18:14.369Z,93.81
2022-11-05T02:21:22.567Z,93.86
2022-11-05T02:24:19.827Z,93.71
2022-11-05T02:27:14.308Z,94.12
2022-11-05T02:30:08.914Z,94.22
2022-11-05T02:32:50.260Z,92.99
2022-11-05T02:35:30.560Z,94.11
2022-11-05T02:38:10.959Z,94.49
2022-11-05T02:41:02.463Z,94.64
2022-11-05T02:43:47.942Z,95.10
2022-11-05T02:46:47.913Z,95.07
2022-11-05T02:49:55.521Z,95.20
2022-11-05T02:53:08.775Z,95.14
2022-11-05T02:55:49.308Z,94.12
2022-11-05T02:58:19.577Z,95.16
2022-11-05T03:00:53.460Z,95.49
2022-11-05T03:03:26.665Z,95.82
2022-11-05T03:06:08.146Z,95.80
2022-11-05T03:08:59.998Z,96.15
2022-11-05T03:11:34.027Z,96.53
2022-11-05T03:14:25.303Z,96.51
2022-11-05T03:17:09.338Z,96.63
2022-11-05T03:19:58.560Z,96.73
2022-11-05T03:22:35.802Z,96.84
2022-11-05T03:25:13.302Z,97.15
2022-11-05T03:27:49.692Z,97.39
2022-11-05T03:30:21.381Z,97.46
2022-11-05T03:33:07.212Z,97.47
2022-11-05T03:35:41.303Z,97.65
2022-11-05T03:38:26.578Z,97.60
2022-11-05T03:41:00.355Z,97.84
2022-11-05T03:43:35.246Z,97.83
2022-11-05T03:46:13.897Z,97.90
2022-11-05T03:48:48.734Z,97.94
2022-11-05T03:51:19.163Z,97.98
2022-11-05T03:53:53.347Z,98.24
2022-11-05T03:56:38.956Z,98.14
2022-11-05T03:59:10.841Z,98.20
2022-11-05T04:01:43.998Z,98.42
2022-11-05T04:04:13.908Z,98.24
2022-11-05T04:07:01.774Z,97.15
2022-11-05T04:09:50.209Z,98.02
2022-11-05T04:12:39.291Z,98.28
2022-11-05T04:15:09.880Z,98.42
2022-11-05T04:17:39.988Z,98.34
2022-11-05T04:20:27.527Z,97.40
2022-11-05T04:23:20.927Z,98.24
2022-11-05T04:25:50.800Z,98.32
2022-11-05T04:28:20.004Z,97.54
2022-11-05T04:30:49.714Z,98.23
2022-11-05T04:33:19.578Z,98.35
2022-11-05T04:35:49.757Z,97.55
2022-11-05T04:38:21.058Z,98.36
2022-11-05T04:40:51.088Z,98.69
2022-11-05T04:43:20.943Z,97.79
2022-11-05T04:45:50.898Z,98.51
2022-11-05T04:48:20.111Z,97.73
2022-11-05T04:50:49.678Z,98.61
2022-11-05T04:53:19.602Z,98.79
2022-11-05T04:55:48.850Z,97.74
2022-11-05T04:58:18.563Z,98.54
2022-11-05T05:00:50.674Z,98.65
2022-11-05T05:03:21.202Z,98.83
2022-11-05T05:05:53.697Z,99.14
2022-11-05T05:08:24.005Z,99.00
2022-11-05T05:10:54.892Z,99.19
2022-11-05T05:13:25.049Z,99.14
2022-11-05T05:15:54.511Z,98.30
2022-11-05T05:18:24.184Z,99.03
2022-11-05T05:21:11.859Z,98.35
2022-11-05T05:23:41.611Z,98.90
2022-11-05T05:26:11.125Z,98.12
2022-11-05T05:28:41.148Z,98.87
2022-11-05T05:31:10.404Z,98.12
2022-11-05T05:33:40.124Z,98.85
2022-11-05T05:36:11.595Z,99.03
2022-11-05T05:38:44.370Z,99.34
2022-11-05T05:41:14.460Z,99.07
2022-11-05T05:43:43.766Z,98.35
2022-11-05T05:46:16.328Z,99.14
2022-11-05T05:48:50.994Z,99.53
2022-11-05T05:51:21.469Z,99.40
2022-11-05T05:53:51.276Z,99.31
2022-11-05T05:56:21.712Z,99.44
2022-11-05T05:58:51.418Z,99.41
2022-11-05T06:01:21.696Z,98.78
2022-11-05T06:03:51.608Z,99.32
2022-11-05T06:06:21.987Z,99.53
2022-11-05T06:08:52.165Z,99.59
2022-11-05T06:11:21.592Z,98.87
2022-11-05T06:13:51.229Z,99.38
2022-11-05T06:16:23.336Z,98.55
2022-11-05T06:18:53.414Z,99.16
2022-11-05T06:21:23.271Z,99.32
2022-11-05T06:23:52.942Z,99.55
2022-11-05T06:26:22.646Z,99.49
2022-11-05T06:28:52.989Z,98.56
2022-11-05T06:31:22.614Z,99.30
2022-11-05T06:33:52.003Z,98.59
2022-11-05T06:36:22.194Z,99.15
2022-11-05T06:38:51.861Z,99.38
2022-11-05T06:41:21.681Z,99.31
2022-11-05T06:43:51.394Z,99.67
2022-11-05T06:46:20.958Z,99.00
2022-11-05T06:48:50.683Z,99.26
2022-11-05T06:51:20.448Z,99.52
2022-11-05T06:53:50.307Z,99.68
2022-11-05T06:56:20.075Z,99.78
2022-11-05T06:58:49.323Z,98.85
2022-11-05T07:01:19.082Z,99.42
2022-11-05T07:03:50.154Z,99.81
2022-11-05T07:06:20.440Z,99.91
2022-11-05T07:08:50.230Z,99.81
2022-11-05T07:11:19.426Z,99.14
2022-11-05T07:13:48.983Z,99.74
2022-11-05T07:16:19.617Z,99.99
2022-11-05T07:18:49.820Z,99.81
2022-11-05T07:21:21.406Z,99.79
2022-11-05T07:23:51.786Z,99.87
2022-11-05T07:26:21.630Z,99.99
2022-11-05T07:28:51.297Z,99.99
2022-11-05T07:31:20.964Z,99.99
2022-11-05T07:33:50.635Z,99.99
2022-11-05T07:36:20.291Z,99.99
2022-11-05T07:38:49.939Z,99.99
2022-11-05T07:41:19.716Z,99.99
2022-11-05T07:43:48.925Z,99.69
2022-11-05T07:46:18.518Z,99.99
2022-11-05T07:48:47.721Z,99.58
2022-11-05T07:51:17.307Z,99.94
2022-11-05T07:53:46.656Z,99.57
2022-11-05T07:56:17.149Z,99.76
2022-11-05T07:58:47.991Z,99.84
2022-11-05T08:01:18.458Z,99.98
2022-11-05T08:03:48.439Z,99.99
2022-11-05T08:06:18.275Z,99.99
2022-11-05T08:08:47.538Z,99.57
2022-11-05T08:11:17.260Z,99.96
2022-11-05T08:13:47.010Z,99.99
2022-11-05T08:16:16.641Z,99.55
2022-11-05T08:18:46.917Z,99.87
2022-11-05T08:21:16.685Z,99.93
2022-11-05T08:23:46.400Z,99.54
2022-11-05T08:26:16.056Z,99.91
2022-11-05T08:28:46.104Z,99.95
2022-11-05T08:31:17.043Z,99.56
2022-11-05T08:33:46.860Z,99.82
2022-11-05T08:36:16.186Z,99.47
2022-11-05T08:38:45.783Z,99.89
2022-11-05T08:41:16.562Z,99.96
2022-11-05T08:43:46.253Z,99.99
2022-11-05T08:46:16.372Z,99.61
2022-11-05T08:48:46.187Z,99.99
2022-11-05T08:51:15.857Z,99.99
2022-11-05T08:53:45.537Z,99.99
2022-11-05T08:56:15.825Z,99.85
2022-11-05T08:58:45.547Z,99.99
2022-11-05T09:01:15.748Z,99.99
2022-11-05T09:03:45.524Z,99.99
2022-11-05T09:06:17.105Z,99.99
2022-11-05T09:08:46.327Z,99.80
2022-11-05T09:11:15.982Z,99.99
2022-11-05T09:13:45.384Z,99.52
2022-11-05T09:16:23.696Z,99.90
2022-11-05T09:18:54.200Z,99.59
2022-11-05T09:21:23.958Z,99.41
2022-11-05T09:23:53.173Z,98.87
2022-11-05T09:26:22.828Z,99.04
2022-11-05T09:28:52.119Z,98.72
2022-11-05T09:31:21.851Z,98.40
2022-11-05T09:33:51.567Z,97.92
2022-11-05T09:36:20.822Z,97.72
2022-11-05T09:38:51.852Z,97.24
2022-11-05T09:41:21.121Z,94.30
2022-11-05T09:43:58.322Z,93.40
2022-11-05T09:46:46.915Z,89.33
2022-11-05T09:49:26.178Z,89.70
2022-11-05T09:51:59.070Z,90.79
2022-11-05T09:54:35.634Z,91.53
2022-11-05T09:57:09.597Z,91.40
2022-11-05T09:59:46.684Z,90.98
2022-11-05T10:02:24.760Z,89.77
2022-11-05T10:05:08.127Z,77.99
2022-11-05T10:08:01.665Z,69.71
2022-11-05T10:10:49.210Z,65.09
2022-11-05T10:13:40.998Z,61.63
2022-11-05T10:16:27.851Z,58.43
2022-11-05T10:19:11.151Z,59.98
2022-11-05T10:24:31.661Z,60.31
2022-11-05T10:27:02.124Z,64.68
2022-11-05T10:29:35.115Z,68.42
2022-11-05T10:32:08.390Z,72.46
2022-11-05T10:34:40.714Z,65.56
2022-11-05T10:37:11.890Z,60.71
2022-11-05T10:39:41.924Z,59.80
2022-11-05T10:42:11.566Z,60.94
2022-11-05T10:44:56.839Z,61.54
2022-11-05T10:47:29.776Z,63.80
2022-11-05T10:50:02.595Z,63.45
2022-11-05T10:52:37.375Z,65.07
2022-11-05T10:55:26.692Z,66.33
2022-11-05T10:58:08.188Z,65.22
2022-11-05T11:00:38.988Z,67.56
2022-11-05T11:03:43.871Z,71.46
2022-11-05T11:06:19.163Z,69.34
2022-11-05T11:08:50.454Z,75.79
2022-11-05T11:11:42.789Z,72.55
2022-11-05T11:14:15.952Z,70.17
2022-11-05T11:16:52.462Z,70.20
2022-11-05T11:19:27.370Z,71.35
2022-11-05T11:22:19.874Z,69.43
2022-11-05T11:24:53.324Z,67.83
2022-11-05T11:27:30.475Z,68.75
2022-11-05T11:30:03.546Z,67.72
2022-11-05T11:32:39.839Z,65.95
2022-11-05T11:35:25.170Z,67.28
2022-11-05T11:37:57.104Z,68.12
2022-11-05T11:40:34.580Z,65.15
2022-11-05T11:43:29.226Z,65.44
2022-11-05T11:46:05.425Z,66.93
2022-11-05T11:48:38.169Z,64.63
2022-11-05T11:51:33.067Z,65.10
2022-11-05T11:54:04.117Z,59.78
2022-11-05T11:56:46.211Z,62.84
2022-11-05T12:02:28.683Z,58.65
2022-11-05T12:05:28.755Z,60.90
2022-11-05T12:08:03.602Z,59.11
2022-11-05T12:10:48.503Z,63.26
2022-11-05T12:13:24.261Z,56.76
2022-11-05T12:16:09.630Z,59.42
2022-11-05T12:18:59.153Z,56.94
2022-11-05T12:21:53.708Z,59.51
2022-11-05T12:24:44.539Z,58.33
2022-11-05T12:27:48.316Z,59.39
2022-11-05T12:30:24.707Z,55.25
2022-11-05T12:33:13.217Z,59.61
2022-11-05T12:35:57.909Z,56.52
2022-11-05T12:38:56.117Z,57.88
2022-11-05T12:41:28.924Z,61.23
2022-11-05T12:44:10.945Z,60.06
2022-11-05T12:46:56.356Z,60.75
2022-11-05T12:49:44.051Z,61.21
2022-11-05T12:52:40.376Z,62.87
2022-11-05T12:55:15.822Z,53.97
2022-11-05T12:57:49.948Z,52.55
2022-11-05T13:00:25.397Z,55.44
2022-11-05T13:03:26.468Z,50.48
2022-11-05T13:06:05.873Z,56.44
2022-11-05T13:09:09.233Z,57.65
2022-11-05T13:12:00.205Z,55.56
2022-11-05T13:14:46.791Z,53.78
2022-11-05T13:17:26.403Z,59.20
2022-11-05T13:20:06.309Z,59.76
2022-11-05T13:22:49.817Z,58.74
2022-11-05T13:25:30.310Z,54.85
2022-11-05T13:28:24.994Z,57.14
2022-11-05T13:30:59.492Z,58.09
2022-11-05T13:33:42.682Z,57.84
2022-11-05T13:36:51.927Z,55.40
2022-11-05T13:39:30.270Z,55.61
2022-11-05T13:42:24.265Z,51.52
2022-11-05T13:45:15.492Z,49.79
2022-11-05T13:48:29.479Z,56.38
2022-11-05T13:51:31.457Z,51.47
2022-11-05T13:54:34.910Z,51.66
2022-11-05T13:57:30.799Z,52.37
2022-11-05T14:00:01.461Z,52.87
2022-11-05T14:02:53.754Z,58.16
2022-11-05T14:05:34.480Z,56.36
2022-11-05T14:08:30.245Z,53.50
2022-11-05T14:11:08.353Z,49.48
2022-11-05T14:13:45.132Z,53.72
2022-11-05T14:16:23.538Z,52.25
2022-11-05T14:19:16.324Z,48.43
2022-11-05T14:21:55.264Z,51.19
2022-11-05T14:24:28.113Z,51.19
2022-11-05T14:27:04.511Z,46.57
2022-11-05T14:29:51.755Z,52.04
2022-11-05T14:32:21.595Z,47.98
2022-11-05T14:35:18.949Z,49.10
2022-11-05T14:37:56.584Z,49.32
2022-11-05T14:40:32.785Z,45.76
2022-11-05T14:43:07.276Z,48.31
2022-11-05T14:45:41.024Z,46.80
2022-11-05T14:48:37.030Z,49.10
2022-11-05T14:51:35.869Z,46.99
2022-11-05T14:54:29.138Z,45.82
2022-11-05T14:57:03.731Z,45.63
2022-11-05T14:59:53.233Z,46.34
2022-11-05T15:02:33.708Z,45.65
2022-11-05T15:05:41.792Z,47.84
2022-11-05T15:08:30.906Z,47.30
2022-11-05T15:11:33.972Z,45.49
2022-11-05T15:14:09.109Z,46.83
2022-11-05T15:16:46.144Z,47.59
2022-11-05T15:19:38.313Z,44.69
2022-11-05T15:22:18.247Z,42.55
2022-11-05T15:24:49.563Z,42.67
2022-11-05T15:28:04.050Z,45.17
2022-11-05T15:30:34.727Z,45.22
2022-11-05T15:33:23.073Z,46.74
2022-11-05T15:35:53.266Z,45.85
2022-11-05T15:38:37.995Z,47.26
2022-11-05T15:41:35.449Z,42.49
2022-11-05T15:44:05.586Z,45.45
2022-11-05T15:46:35.413Z,48.42
2022-11-05T15:49:10.614Z,45.07
2022-11-05T15:51:40.781Z,42.94
2022-11-05T15:54:30.035Z,45.46
2022-11-05T15:57:01.511Z,43.82
2022-11-05T15:59:32.432Z,44.19
2022-11-05T16:02:24.364Z,43.51
2022-11-05T16:04:54.720Z,45.34
2022-11-05T16:07:42.906Z,46.91
2022-11-05T16:10:30.775Z,45.86
2022-11-05T16:13:23.473Z,44.84
2022-11-05T16:15:59.931Z,43.99
2022-11-05T16:18:41.652Z,44.89
2022-11-05T16:21:19.339Z,45.43
2022-11-05T16:23:55.511Z,46.58
2022-11-05T16:29:35.547Z,47.50
2022-11-05T16:32:31.110Z,44.69
2022-11-05T16:35:07.014Z,48.33
2022-11-05T16:37:41.356Z,48.74
2022-11-05T16:40:22.115Z,44.04
2022-11-05T16:42:54.588Z,43.20
2022-11-05T16:45:26.699Z,48.20
2022-11-05T16:47:56.632Z,44.01
2022-11-05T16:50:31.489Z,51.30
2022-11-05T16:53:02.625Z,45.56
2022-11-05T16:55:34.696Z,44.76
2022-11-05T16:58:05.080Z,47.13
2022-11-05T17:00:35.069Z,48.93
2022-11-05T17:03:05.251Z,46.36
2022-11-05T17:05:34.956Z,46.85
2022-11-05T17:08:04.890Z,49.52
2022-11-05T17:10:34.848Z,47.19
2022-11-05T17:13:05.626Z,45.62
2022-11-05T17:15:38.994Z,47.32
2022-11-05T17:18:12.701Z,46.02
2022-11-05T17:20:51.096Z,47.31
2022-11-05T17:23:23.663Z,46.98
2022-11-05T17:25:56.613Z,46.39
2022-11-05T17:28:27.314Z,46.57
2022-11-05T17:30:59.798Z,48.48
2022-11-05T17:33:32.152Z,46.92
2022-11-05T17:36:02.437Z,44.82
2022-11-05T17:38:33.514Z,49.17
2022-11-05T17:41:03.503Z,48.56
2022-11-05T17:43:33.170Z,48.03
2022-11-05T17:46:07.433Z,47.94
2022-11-05T17:48:38.833Z,47.99
2022-11-05T17:51:13.332Z,47.67
2022-11-05T17:53:45.678Z,48.62
2022-11-05T17:56:27.182Z,49.58
2022-11-05T17:59:01.112Z,46.70
2022-11-05T18:01:36.704Z,48.24
2022-11-05T18:04:08.844Z,48.09
2022-11-05T18:06:40.651Z,49.01
2022-11-05T18:09:13.541Z,47.52
2022-11-05T18:11:43.935Z,48.89
2022-11-05T18:14:14.157Z,48.55
2022-11-05T18:16:44.257Z,47.40
2022-11-05T18:19:14.258Z,48.40
2022-11-05T18:21:44.521Z,51.63
2022-11-05T18:24:14.308Z,50.59
2022-11-05T18:26:44.248Z,48.11
2022-11-05T18:29:14.415Z,47.61
2022-11-05T18:31:44.236Z,48.62
2022-11-05T18:34:14.219Z,48.38
2022-11-05T18:36:46.264Z,48.11
2022-11-05T18:39:16.442Z,48.75
2022-11-05T18:41:46.293Z,50.11
2022-11-05T18:47:26.842Z,49.63
2022-11-05T18:49:56.736Z,47.75
2022-11-05T18:52:27.792Z,49.01
2022-11-05T18:54:57.596Z,48.21
2022-11-05T18:57:27.784Z,48.07
2022-11-05T18:59:57.511Z,48.31
2022-11-05T19:02:27.903Z,47.53
2022-11-05T19:05:28.501Z,49.59
2022-11-05T19:07:49.980Z,47.85
2022-11-05T19:10:20.606Z,48.89
2022-11-05T19:12:50.854Z,49.59
2022-11-05T19:15:21.224Z,48.09
2022-11-05T19:17:51.474Z,45.72
2022-11-05T19:20:21.477Z,48.35
2022-11-05T19:22:51.529Z,50.60
2022-11-05T19:25:21.512Z,51.04
2022-11-05T19:27:51.350Z,51.64
2022-11-05T19:30:22.061Z,51.23
2022-11-05T19:32:52.172Z,52.02
2022-11-05T19:35:21.914Z,52.45
2022-11-05T19:37:55.413Z,51.17
2022-11-05T19:40:27.382Z,48.26
2022-11-05T19:42:57.374Z,44.90
2022-11-05T19:48:19.836Z,45.66
2022-11-05T19:50:50.775Z,46.21
2022-11-05T19:53:20.580Z,49.86
2022-11-05T19:55:50.480Z,49.71
2022-11-05T19:58:20.274Z,52.79
2022-11-05T20:00:50.095Z,55.10
2022-11-05T20:03:19.865Z,56.08
2022-11-05T20:05:49.615Z,56.94
2022-11-05T20:08:19.391Z,56.77
2022-11-05T20:10:54.493Z,58.88
2022-11-05T20:13:25.422Z,56.57
2022-11-05T20:15:55.285Z,58.67
2022-11-05T20:18:25.952Z,57.87
2022-11-05T20:21:10.742Z,57.53
2022-11-05T20:23:40.859Z,57.46
2022-11-05T20:26:13.878Z,56.97
2022-11-05T20:28:45.758Z,58.15
2022-11-05T20:31:18.602Z,59.46
2022-11-05T20:33:48.914Z,60.13
2022-11-05T20:36:21.472Z,59.93
2022-11-05T20:38:53.110Z,60.59
2022-11-05T20:41:23.686Z,61.58
2022-11-05T20:43:53.789Z,61.56
2022-11-05T20:46:24.216Z,62.08
2022-11-05T20:48:55.071Z,62.76
2022-11-05T20:51:26.700Z,62.96
2022-11-05T20:53:58.819Z,62.82
2022-11-05T20:56:31.240Z,63.84
2022-11-05T20:59:01.885Z,63.56
2022-11-05T21:01:34.552Z,64.66
2022-11-05T21:04:06.028Z,63.91
2022-11-05T21:06:36.947Z,64.45
2022-11-05T21:09:07.208Z,64.39
2022-11-05T21:11:55.615Z,66.35
2022-11-05T21:14:25.673Z,66.53
2022-11-05T21:16:55.463Z,66.27
2022-11-05T21:19:25.259Z,67.74
2022-11-05T21:21:55.562Z,67.67
2022-11-05T21:24:25.493Z,66.38
2022-11-05T21:26:55.755Z,66.02
2022-11-05T21:29:25.492Z,66.56
2022-11-05T21:31:55.722Z,67.17
2022-11-05T21:34:25.771Z,67.25
2022-11-05T21:36:55.597Z,67.52
2022-11-05T21:39:25.369Z,68.56
2022-11-05T21:41:55.204Z,69.19
2022-11-05T21:44:24.906Z,69.75
2022-11-05T21:46:58.783Z,70.30
2022-11-05T21:49:28.831Z,70.30
2022-11-05T21:52:17.197Z,70.89
2022-11-05T21:55:06.344Z,71.80
2022-11-05T21:57:54.710Z,72.47
2022-11-05T22:00:24.667Z,72.76
2022-11-05T22:02:54.723Z,73.07
2022-11-05T22:05:24.631Z,73.14
2022-11-05T22:07:54.606Z,73.09
2022-11-05T22:10:25.175Z,73.90
2022-11-05T22:12:54.937Z,74.21
2022-11-05T22:15:24.678Z,73.74
2022-11-05T22:17:54.383Z,74.37
2022-11-05T22:21:19.444Z,74.48
2022-11-05T22:24:58.987Z,74.24
2022-11-05T22:27:33.482Z,75.53
2022-11-05T22:30:07.087Z,75.78
2022-11-05T22:32:43.367Z,75.74
2022-11-05T22:35:13.751Z,75.73
2022-11-05T22:37:50.190Z,76.56
2022-11-05T22:40:23.802Z,75.64
2022-11-05T22:42:54.303Z,75.94
2022-11-05T22:45:24.009Z,75.70
2022-11-05T22:47:54.277Z,75.27
2022-11-05T22:50:23.997Z,75.76
2022-11-05T22:52:53.671Z,75.57
2022-11-05T22:55:23.573Z,75.67
2022-11-05T22:57:53.415Z,76.65
2022-11-05T23:00:34.291Z,76.67
2022-11-05T23:03:04.491Z,77.14
2022-11-05T23:05:37.095Z,77.13
2022-11-05T23:08:26.149Z,78.07
2022-11-05T23:11:19.271Z,78.11
2022-11-05T23:13:49.159Z,78.18
2022-11-05T23:16:36.926Z,77.98
2022-11-05T23:19:24.998Z,78.63
2022-11-05T23:22:15.485Z,78.00
2022-11-05T23:24:45.560Z,77.93
2022-11-05T23:27:16.505Z,77.78
2022-11-05T23:29:46.928Z,78.31
2022-11-05T23:32:25.245Z,78.25
2022-11-05T23:34:57.025Z,78.66
2022-11-05T23:37:47.737Z,78.60
2022-11-05T23:40:25.580Z,78.90
2022-11-05T23:43:28.230Z,79.17
2022-11-05T23:46:19.526Z,79.49
2022-11-05T23:48:50.334Z,79.04
2022-11-05T23:51:20.528Z,79.81
2022-11-05T23:53:50.370Z,79.96
2022-11-05T23:56:20.315Z,80.52
2022-11-05T23:58:50.073Z,80.48
